Time;durP1;ratioP1;P1;durP2;ratioP2;P2;SDS_P1;SDS_P2;PMS_P1;PMS_P2;Temp;Humidity;BMP_temperature;BMP_pressure;BME280_temperature;BME280_humidity;BME280_pressure;Samples;Min_cycle;Max_cycle;Signal;HPM_P1;HPM_P2
2022/03/26 00:00:31;;;;;;;19.48;14.77;;;;;;;;;;5006607;28;20200;-75
2022/03/26 00:02:59;;;;;;;21.63;17.10;;;;;;;;;;5006794;28;20200;-75
2022/03/26 00:05:26;;;;;;;19.00;13.85;;;;;;;;;;5004285;28;20201;-75
2022/03/26 00:07:53;;;;;;;20.92;14.02;;;;;;;;;;5006199;28;20686;-76
2022/03/26 00:10:20;;;;;;;24.23;16.08;;;;;;;;;;5005352;28;20207;-75
2022/03/26 00:12:48;;;;;;;20.60;14.88;;;;;;;;;;5003362;28;20193;-74
2022/03/26 00:15:15;;;;;;;19.45;15.95;;;;;;;;;;4999841;28;20201;-75
2022/03/26 00:17:42;;;;;;;16.77;13.50;;;;;;;;;;5004259;28;20195;-75
2022/03/26 00:20:11;;;;;;;20.52;14.95;;;;;;;;;;5009723;28;20199;-75
2022/03/26 00:22:38;;;;;;;19.30;14.80;;;;;;;;;;4994525;28;20208;-77
2022/03/26 00:25:06;;;;;;;18.15;14.23;;;;;;;;;;5001817;28;20195;-76
2022/03/26 00:27:33;;;;;;;19.00;14.68;;;;;;;;;;5000016;28;20225;-75
2022/03/26 00:30:02;;;;;;;18.75;14.40;;;;;;;;;;4998284;28;20213;-76
2022/03/26 00:32:29;;;;;;;19.17;13.93;;;;;;;;;;5008926;28;20295;-75
2022/03/26 00:34:56;;;;;;;20.63;14.90;;;;;;;;;;5008755;28;20200;-74
2022/03/26 00:37:24;;;;;;;20.10;14.88;;;;;;;;;;5003721;28;20228;-75
2022/03/26 00:39:51;;;;;;;21.42;15.55;;;;;;;;;;5011398;28;20651;-76
2022/03/26 00:42:18;;;;;;;18.92;13.35;;;;;;;;;;5003646;28;20200;-76
2022/03/26 00:44:46;;;;;;;21.42;15.55;;;;;;;;;;5001653;28;20196;-76
2022/03/26 00:47:13;;;;;;;19.40;13.52;;;;;;;;;;5002180;28;20252;-75
2022/03/26 00:49:40;;;;;;;20.13;14.45;;;;;;;;;;4994576;28;20199;-75
2022/03/26 00:52:07;;;;;;;18.38;13.55;;;;;;;;;;5006544;28;20205;-77
2022/03/26 00:54:35;;;;;;;18.48;14.27;;;;;;;;;;4996222;28;20231;-75
2022/03/26 00:57:03;;;;;;;18.17;14.60;;;;;;;;;;5004769;28;20615;-75
2022/03/26 00:59:30;;;;;;;21.67;16.02;;;;;;;;;;5004520;28;20695;-76
2022/03/26 01:01:57;;;;;;;19.00;14.60;;;;;;;;;;5000064;28;20203;-75
2022/03/26 01:04:24;;;;;;;20.10;14.50;;;;;;;;;;5008216;28;20896;-75
2022/03/26 01:06:51;;;;;;;17.23;15.10;;;;;;;;;;5001201;28;20215;-75
2022/03/26 01:09:18;;;;;;;19.73;15.30;;;;;;;;;;5003965;28;20227;-76
2022/03/26 01:11:47;;;;;;;19.23;13.77;;;;;;;;;;5005295;28;20200;-76
2022/03/26 01:14:14;;;;;;;20.45;14.73;;;;;;;;;;5001483;28;20208;-76
2022/03/26 01:16:41;;;;;;;20.70;14.55;;;;;;;;;;4993021;28;20619;-76
2022/03/26 01:19:08;;;;;;;16.90;14.15;;;;;;;;;;5008217;28;20655;-77
2022/03/26 01:21:35;;;;;;;21.15;14.75;;;;;;;;;;5003920;28;20672;-76
2022/03/26 01:24:02;;;;;;;19.55;13.30;;;;;;;;;;5002857;28;20219;-76
2022/03/26 01:26:29;;;;;;;19.23;14.20;;;;;;;;;;5000558;28;20209;-77
2022/03/26 01:28:57;;;;;;;19.15;14.48;;;;;;;;;;5003327;28;20220;-75
2022/03/26 01:31:24;;;;;;;19.40;14.35;;;;;;;;;;5002808;28;20243;-76
2022/03/26 01:33:52;;;;;;;17.02;13.13;;;;;;;;;;5009170;28;20208;-76
2022/03/26 01:36:19;;;;;;;20.73;13.50;;;;;;;;;;5004018;28;20590;-76
2022/03/26 01:38:46;;;;;;;17.88;13.43;;;;;;;;;;4993959;28;20205;-76
2022/03/26 01:41:13;;;;;;;19.55;14.13;;;;;;;;;;4999186;28;20683;-75
2022/03/26 01:43:41;;;;;;;20.55;15.40;;;;;;;;;;5008684;28;20196;-75
2022/03/26 01:46:10;;;;;;;20.17;13.70;;;;;;;;;;5003434;28;20654;-75
2022/03/26 01:48:38;;;;;;;19.50;14.60;;;;;;;;;;5005360;28;20610;-75
2022/03/26 01:51:14;;;;;;;24.55;16.15;;;;;;;;;;5010648;28;20196;-75
2022/03/26 01:53:41;;;;;;;18.75;14.00;;;;;;;;;;4996790;28;20671;-75
2022/03/26 01:56:09;;;;;;;18.70;14.45;;;;;;;;;;5005556;28;20244;-75
2022/03/26 01:58:36;;;;;;;18.45;14.40;;;;;;;;;;5002980;28;20201;-76
2022/03/26 02:01:03;;;;;;;18.33;14.45;;;;;;;;;;4997520;28;20197;-74
2022/03/26 02:03:31;;;;;;;18.70;13.27;;;;;;;;;;5007165;28;20207;-75
2022/03/26 02:05:58;;;;;;;18.80;12.75;;;;;;;;;;5002257;28;20871;-75
2022/03/26 02:08:25;;;;;;;20.38;13.60;;;;;;;;;;5012092;28;20627;-76
2022/03/26 02:10:53;;;;;;;16.58;12.40;;;;;;;;;;5003956;28;20231;-75
2022/03/26 02:13:20;;;;;;;19.58;16.10;;;;;;;;;;4997761;28;20216;-77
2022/03/26 02:15:47;;;;;;;19.50;13.98;;;;;;;;;;5003204;28;20556;-75
2022/03/26 02:18:14;;;;;;;18.27;14.38;;;;;;;;;;5002670;28;20664;-75
2022/03/26 02:20:43;;;;;;;18.02;14.70;;;;;;;;;;5006276;28;20196;-75
2022/03/26 02:23:10;;;;;;;19.80;14.30;;;;;;;;;;5003946;28;20553;-75
2022/03/26 02:25:38;;;;;;;22.80;13.20;;;;;;;;;;4999324;28;20564;-74
2022/03/26 02:28:05;;;;;;;16.17;13.93;;;;;;;;;;5000404;28;20583;-75
2022/03/26 02:30:33;;;;;;;21.05;15.65;;;;;;;;;;5001313;28;20210;-74
2022/03/26 02:33:00;;;;;;;20.98;14.73;;;;;;;;;;5006851;28;20614;-74
2022/03/26 02:35:27;;;;;;;17.58;13.77;;;;;;;;;;5000084;28;20211;-75
2022/03/26 02:37:56;;;;;;;20.25;14.60;;;;;;;;;;5012674;28;20231;-77
2022/03/26 02:40:23;;;;;;;22.40;14.68;;;;;;;;;;4997371;28;20205;-76
2022/03/26 02:42:50;;;;;;;17.90;12.48;;;;;;;;;;5000682;28;20575;-75
2022/03/26 02:45:17;;;;;;;23.25;15.60;;;;;;;;;;4999727;28;20201;-75
2022/03/26 02:47:44;;;;;;;17.60;12.23;;;;;;;;;;5006671;28;20219;-75
2022/03/26 02:50:12;;;;;;;20.33;13.30;;;;;;;;;;4998651;28;20195;-76
2022/03/26 02:52:39;;;;;;;14.68;12.90;;;;;;;;;;4997057;28;20618;-75
2022/03/26 02:55:10;;;;;;;19.65;13.68;;;;;;;;;;4999110;28;20235;-77
2022/03/26 02:57:37;;;;;;;24.73;13.77;;;;;;;;;;4999754;28;20231;-76
2022/03/26 03:00:05;;;;;;;19.35;13.98;;;;;;;;;;4996776;28;20680;-75
2022/03/26 03:02:33;;;;;;;18.95;14.05;;;;;;;;;;5000674;28;20580;-74
2022/03/26 03:05:00;;;;;;;18.55;13.02;;;;;;;;;;5001798;28;20204;-74
2022/03/26 03:07:27;;;;;;;19.65;14.82;;;;;;;;;;5010970;28;20208;-76
2022/03/26 03:09:54;;;;;;;22.80;14.43;;;;;;;;;;5004157;28;20207;-74
2022/03/26 03:12:22;;;;;;;18.80;13.18;;;;;;;;;;5002874;28;20200;-75
2022/03/26 03:14:49;;;;;;;19.67;14.48;;;;;;;;;;5004665;28;20242;-75
2022/03/26 03:17:17;;;;;;;16.98;15.13;;;;;;;;;;5004380;28;20204;-75
2022/03/26 03:19:44;;;;;;;22.95;13.82;;;;;;;;;;5004675;28;20228;-74
2022/03/26 03:22:11;;;;;;;18.92;13.00;;;;;;;;;;4999045;28;20219;-77
2022/03/26 03:24:38;;;;;;;15.73;13.13;;;;;;;;;;4999246;28;20204;-77
2022/03/26 03:27:06;;;;;;;17.25;13.82;;;;;;;;;;4998602;28;20207;-75
2022/03/26 03:29:35;;;;;;;17.65;14.25;;;;;;;;;;5003902;28;20690;-74
2022/03/26 03:32:02;;;;;;;15.27;11.98;;;;;;;;;;5009977;28;20651;-75
2022/03/26 03:34:29;;;;;;;17.65;12.95;;;;;;;;;;5016291;28;20200;-78
2022/03/26 03:36:56;;;;;;;19.90;13.13;;;;;;;;;;4995161;28;20220;-76
2022/03/26 03:39:23;;;;;;;17.98;12.60;;;;;;;;;;5005920;28;20201;-75
2022/03/26 03:41:51;;;;;;;20.00;13.85;;;;;;;;;;5007485;28;20220;-76
2022/03/26 03:44:18;;;;;;;17.88;13.50;;;;;;;;;;5000860;28;20196;-76
2022/03/26 03:46:46;;;;;;;20.42;14.55;;;;;;;;;;5007609;28;20207;-75
2022/03/26 03:49:13;;;;;;;18.38;13.45;;;;;;;;;;5005743;28;20223;-76
2022/03/26 03:51:40;;;;;;;18.98;12.82;;;;;;;;;;5005545;28;21817;-76
2022/03/26 03:54:08;;;;;;;19.23;14.00;;;;;;;;;;4997386;28;20644;-75
2022/03/26 03:56:35;;;;;;;17.88;13.07;;;;;;;;;;5004897;28;20241;-75
2022/03/26 03:59:02;;;;;;;18.58;13.68;;;;;;;;;;5004159;28;20200;-76
2022/03/26 04:01:29;;;;;;;21.75;15.00;;;;;;;;;;4996623;28;20599;-75
2022/03/26 04:03:57;;;;;;;18.42;13.05;;;;;;;;;;5003732;28;20648;-75
2022/03/26 04:06:24;;;;;;;18.92;13.23;;;;;;;;;;5007798;28;20207;-75
2022/03/26 04:08:51;;;;;;;18.65;13.30;;;;;;;;;;5009089;28;20216;-75
2022/03/26 04:11:18;;;;;;;17.90;13.77;;;;;;;;;;5009145;28;20202;-75
2022/03/26 04:13:46;;;;;;;19.13;11.40;;;;;;;;;;5008041;28;20199;-76
2022/03/26 04:16:13;;;;;;;17.65;13.30;;;;;;;;;;5012158;28;20196;-75
2022/03/26 04:18:40;;;;;;;20.30;14.70;;;;;;;;;;5000100;28;20204;-75
2022/03/26 04:21:09;;;;;;;17.10;11.80;;;;;;;;;;5003417;28;20211;-75
2022/03/26 04:23:36;;;;;;;19.00;13.02;;;;;;;;;;5009974;28;20552;-75
2022/03/26 04:26:03;;;;;;;19.70;14.10;;;;;;;;;;4998498;28;20672;-75
2022/03/26 04:28:30;;;;;;;17.10;12.75;;;;;;;;;;5007860;28;20216;-77
2022/03/26 04:30:59;;;;;;;18.50;14.10;;;;;;;;;;5009331;28;20651;-76
2022/03/26 04:33:26;;;;;;;21.40;13.70;;;;;;;;;;5003891;28;20197;-75
2022/03/26 04:35:53;;;;;;;17.17;12.63;;;;;;;;;;5013875;28;20204;-75
2022/03/26 04:38:21;;;;;;;18.77;12.73;;;;;;;;;;5007277;28;20201;-75
2022/03/26 04:40:50;;;;;;;18.45;13.13;;;;;;;;;;5009069;28;20215;-77
2022/03/26 04:43:18;;;;;;;15.50;11.88;;;;;;;;;;5002003;28;20243;-77
2022/03/26 04:45:45;;;;;;;17.23;13.40;;;;;;;;;;5009783;28;20203;-75
2022/03/26 04:48:13;;;;;;;14.48;11.00;;;;;;;;;;5004579;28;20227;-75
2022/03/26 04:50:40;;;;;;;18.15;13.48;;;;;;;;;;5007982;28;20239;-76
2022/03/26 04:53:07;;;;;;;18.65;13.80;;;;;;;;;;5002859;28;20196;-76
2022/03/26 04:55:35;;;;;;;17.00;13.25;;;;;;;;;;5005738;28;20661;-76
2022/03/26 04:58:03;;;;;;;16.92;13.48;;;;;;;;;;5006065;28;20200;-75
2022/03/26 05:00:30;;;;;;;19.33;14.38;;;;;;;;;;4999602;28;22158;-75
2022/03/26 05:02:57;;;;;;;19.55;13.93;;;;;;;;;;5014208;28;20199;-76
2022/03/26 05:05:24;;;;;;;14.98;12.32;;;;;;;;;;5000532;28;20204;-76
2022/03/26 05:07:55;;;;;;;16.50;11.95;;;;;;;;;;5005277;28;20200;-77
2022/03/26 05:10:23;;;;;;;15.15;12.05;;;;;;;;;;4999236;28;20758;-75
2022/03/26 05:12:52;;;;;;;18.17;12.85;;;;;;;;;;5005832;28;20200;-75
2022/03/26 05:15:21;;;;;;;17.27;13.75;;;;;;;;;;5000817;28;20204;-75
2022/03/26 05:17:48;;;;;;;16.33;12.40;;;;;;;;;;5009243;28;20659;-75
2022/03/26 05:20:15;;;;;;;16.63;12.80;;;;;;;;;;5010134;28;20192;-76
2022/03/26 05:22:43;;;;;;;18.48;13.52;;;;;;;;;;5003569;28;20663;-74
2022/03/26 05:25:10;;;;;;;21.00;12.85;;;;;;;;;;5010250;28;20692;-74
2022/03/26 05:27:37;;;;;;;15.98;11.50;;;;;;;;;;5001296;28;20209;-75
2022/03/26 05:30:07;;;;;;;21.35;13.57;;;;;;;;;;5008510;28;20216;-76
2022/03/26 05:32:34;;;;;;;16.85;12.30;;;;;;;;;;5000632;28;20611;-75
2022/03/26 05:35:02;;;;;;;17.70;12.18;;;;;;;;;;5003118;28;20204;-76
2022/03/26 05:37:31;;;;;;;15.90;12.13;;;;;;;;;;5006301;28;20660;-74
2022/03/26 05:39:58;;;;;;;16.77;12.40;;;;;;;;;;5009916;28;20199;-75
2022/03/26 05:42:25;;;;;;;19.90;14.00;;;;;;;;;;5011269;28;20698;-74
2022/03/26 05:44:52;;;;;;;22.88;13.73;;;;;;;;;;5007707;28;20196;-75
2022/03/26 05:47:20;;;;;;;16.55;12.73;;;;;;;;;;5005126;28;20197;-74
2022/03/26 05:49:47;;;;;;;19.42;13.32;;;;;;;;;;5004454;28;20212;-74
2022/03/26 05:52:14;;;;;;;17.75;13.27;;;;;;;;;;5009357;28;20635;-77
2022/03/26 05:54:41;;;;;;;19.83;13.48;;;;;;;;;;5001754;28;20718;-74
2022/03/26 05:57:08;;;;;;;17.38;12.85;;;;;;;;;;5011791;28;20200;-74
2022/03/26 05:59:35;;;;;;;16.15;12.43;;;;;;;;;;5009868;28;20212;-74
2022/03/26 06:02:02;;;;;;;19.20;13.73;;;;;;;;;;5006980;28;20200;-75
2022/03/26 06:04:31;;;;;;;16.95;11.63;;;;;;;;;;5003419;28;20208;-75
2022/03/26 06:06:59;;;;;;;21.35;13.07;;;;;;;;;;5000616;28;20196;-76
2022/03/26 06:09:26;;;;;;;16.90;11.73;;;;;;;;;;5016482;28;20564;-77
2022/03/26 06:11:53;;;;;;;15.07;11.95;;;;;;;;;;5008467;28;20223;-75
2022/03/26 06:14:20;;;;;;;17.40;12.88;;;;;;;;;;5004604;28;20553;-75
2022/03/26 06:16:47;;;;;;;18.23;11.75;;;;;;;;;;5003240;28;20558;-75
2022/03/26 06:19:14;;;;;;;16.40;12.18;;;;;;;;;;5012706;28;20201;-75
2022/03/26 06:21:42;;;;;;;17.05;11.50;;;;;;;;;;5003114;28;20204;-75
2022/03/26 06:24:09;;;;;;;18.58;13.77;;;;;;;;;;5010722;28;20626;-75
2022/03/26 06:26:39;;;;;;;20.15;13.88;;;;;;;;;;5008061;28;20205;-76
2022/03/26 06:29:06;;;;;;;18.45;14.45;;;;;;;;;;5015465;28;20255;-75
2022/03/26 06:31:33;;;;;;;19.20;14.15;;;;;;;;;;4997925;28;20203;-76
2022/03/26 06:34:00;;;;;;;18.88;14.00;;;;;;;;;;5001331;28;20226;-75
2022/03/26 06:36:27;;;;;;;17.35;13.20;;;;;;;;;;5004833;28;20209;-77
2022/03/26 06:38:56;;;;;;;18.77;13.80;;;;;;;;;;5005509;28;20650;-76
2022/03/26 06:41:23;;;;;;;19.58;13.60;;;;;;;;;;4997322;28;20199;-75
2022/03/26 06:43:50;;;;;;;17.70;13.60;;;;;;;;;;5001807;28;20201;-77
2022/03/26 06:46:17;;;;;;;17.83;13.10;;;;;;;;;;5004513;28;20196;-75
2022/03/26 06:48:44;;;;;;;20.15;12.82;;;;;;;;;;5006161;28;20210;-75
2022/03/26 06:51:11;;;;;;;23.38;12.57;;;;;;;;;;5005566;28;20209;-77
2022/03/26 06:53:38;;;;;;;20.48;14.20;;;;;;;;;;5009328;28;20209;-75
2022/03/26 06:56:08;;;;;;;15.73;12.38;;;;;;;;;;5005126;28;20595;-77
2022/03/26 06:58:35;;;;;;;17.13;12.60;;;;;;;;;;5005775;28;20212;-76
2022/03/26 07:01:03;;;;;;;16.73;12.18;;;;;;;;;;5000625;28;20200;-76
2022/03/26 07:03:30;;;;;;;15.35;12.90;;;;;;;;;;5008106;28;21027;-75
2022/03/26 07:05:58;;;;;;;13.20;11.38;;;;;;;;;;5001691;28;20208;-76
2022/03/26 07:08:25;;;;;;;19.98;12.48;;;;;;;;;;4999173;28;20208;-75
2022/03/26 07:10:52;;;;;;;16.02;13.13;;;;;;;;;;4998350;28;20605;-75
2022/03/26 07:13:20;;;;;;;16.58;12.98;;;;;;;;;;5001303;28;20607;-75
2022/03/26 07:15:48;;;;;;;17.83;12.10;;;;;;;;;;5000803;28;20286;-76
2022/03/26 07:18:16;;;;;;;15.75;12.20;;;;;;;;;;5001147;28;20444;-75
2022/03/26 07:20:43;;;;;;;17.00;12.65;;;;;;;;;;4998387;28;20660;-76
2022/03/26 07:23:10;;;;;;;18.08;13.25;;;;;;;;;;4997719;28;20192;-75
2022/03/26 07:25:37;;;;;;;18.70;12.75;;;;;;;;;;5008893;28;20207;-74
2022/03/26 07:28:05;;;;;;;14.38;11.38;;;;;;;;;;4998494;28;20200;-75
2022/03/26 07:30:34;;;;;;;15.95;12.20;;;;;;;;;;5001213;28;20272;-74
2022/03/26 07:33:02;;;;;;;15.25;12.05;;;;;;;;;;4999033;28;20192;-74
2022/03/26 07:35:31;;;;;;;18.48;12.05;;;;;;;;;;5005417;28;20672;-74
2022/03/26 07:37:58;;;;;;;16.05;11.85;;;;;;;;;;4999554;28;20207;-74
2022/03/26 07:40:25;;;;;;;16.20;12.10;;;;;;;;;;4999242;28;20889;-74
2022/03/26 07:42:52;;;;;;;14.32;11.60;;;;;;;;;;4995595;28;20711;-73
2022/03/26 07:45:19;;;;;;;17.92;11.75;;;;;;;;;;4997964;28;20656;-76
2022/03/26 07:47:47;;;;;;;16.67;12.82;;;;;;;;;;4998062;28;20657;-73
2022/03/26 07:50:15;;;;;;;14.13;11.50;;;;;;;;;;5001706;28;20710;-74
2022/03/26 07:52:42;;;;;;;17.58;10.95;;;;;;;;;;5012570;28;20615;-74
2022/03/26 07:55:10;;;;;;;14.82;11.40;;;;;;;;;;4992909;28;20220;-75
2022/03/26 07:57:37;;;;;;;17.67;12.82;;;;;;;;;;5003033;28;20195;-74
2022/03/26 08:00:05;;;;;;;14.60;10.82;;;;;;;;;;5001157;28;20228;-75
2022/03/26 08:02:32;;;;;;;15.75;11.63;;;;;;;;;;4999787;28;20205;-73
2022/03/26 08:05:00;;;;;;;17.48;12.25;;;;;;;;;;5005493;28;20208;-75
2022/03/26 08:07:28;;;;;;;16.15;12.88;;;;;;;;;;5007977;28;21081;-75
2022/03/26 08:09:55;;;;;;;17.40;12.07;;;;;;;;;;5006510;28;20270;-75
2022/03/26 08:12:22;;;;;;;13.10;11.43;;;;;;;;;;5007685;28;20615;-74
2022/03/26 08:14:49;;;;;;;22.88;14.38;;;;;;;;;;5004046;28;20208;-75
2022/03/26 08:17:16;;;;;;;16.90;13.85;;;;;;;;;;5007807;28;20594;-75
2022/03/26 08:19:43;;;;;;;16.55;12.98;;;;;;;;;;5021012;28;20640;-75
2022/03/26 08:22:12;;;;;;;18.02;12.77;;;;;;;;;;5008779;28;20211;-74
2022/03/26 08:24:39;;;;;;;20.40;14.27;;;;;;;;;;5007715;28;20571;-74
2022/03/26 08:27:06;;;;;;;17.50;13.68;;;;;;;;;;5016312;28;20200;-73
2022/03/26 08:29:34;;;;;;;15.38;12.20;;;;;;;;;;5003933;28;20702;-74
2022/03/26 08:32:04;;;;;;;18.15;14.77;;;;;;;;;;4998614;28;20195;-73
2022/03/26 08:34:31;;;;;;;18.80;12.38;;;;;;;;;;4997151;28;20209;-74
2022/03/26 08:36:58;;;;;;;15.73;12.23;;;;;;;;;;4994348;28;20201;-73
2022/03/26 08:39:27;;;;;;;14.23;10.80;;;;;;;;;;5001526;28;20283;-74
2022/03/26 08:41:54;;;;;;;22.63;13.13;;;;;;;;;;4998731;28;20211;-74
2022/03/26 08:44:21;;;;;;;13.95;10.40;;;;;;;;;;5010910;28;20203;-75
2022/03/26 08:46:48;;;;;;;19.73;14.15;;;;;;;;;;4999107;28;20200;-74
2022/03/26 08:49:15;;;;;;;14.05;11.50;;;;;;;;;;4998701;28;20212;-74
2022/03/26 08:51:42;;;;;;;14.45;12.07;;;;;;;;;;5007854;28;20564;-74
2022/03/26 08:54:09;;;;;;;15.65;11.30;;;;;;;;;;5005016;28;20208;-75
2022/03/26 08:56:37;;;;;;;13.35;10.15;;;;;;;;;;5006973;28;20200;-74
2022/03/26 08:59:04;;;;;;;15.18;10.52;;;;;;;;;;5008250;28;20258;-76
2022/03/26 09:01:32;;;;;;;14.20;10.77;;;;;;;;;;5009487;28;20199;-74
2022/03/26 09:03:59;;;;;;;15.48;11.50;;;;;;;;;;5011716;28;20571;-74
2022/03/26 09:06:26;;;;;;;13.75;10.10;;;;;;;;;;5004175;28;20208;-76
2022/03/26 09:08:53;;;;;;;17.67;11.90;;;;;;;;;;5002025;28;20652;-76
2022/03/26 09:11:20;;;;;;;13.98;10.57;;;;;;;;;;5007645;28;20212;-75
2022/03/26 09:13:48;;;;;;;11.60;8.48;;;;;;;;;;4998332;28;20561;-75
2022/03/26 09:16:15;;;;;;;11.88;9.82;;;;;;;;;;5002443;28;20200;-77
2022/03/26 09:18:42;;;;;;;14.50;10.60;;;;;;;;;;5000001;28;20683;-74
2022/03/26 09:21:11;;;;;;;15.95;12.10;;;;;;;;;;5010396;28;20425;-76
2022/03/26 09:23:38;;;;;;;16.25;11.38;;;;;;;;;;4999710;28;20200;-75
2022/03/26 09:26:05;;;;;;;13.35;9.38;;;;;;;;;;4997008;28;20857;-75
2022/03/26 09:28:32;;;;;;;11.90;9.70;;;;;;;;;;4998740;28;20200;-74
2022/03/26 09:31:01;;;;;;;20.08;11.68;;;;;;;;;;5014066;28;20690;-75
2022/03/26 09:33:28;;;;;;;11.93;8.82;;;;;;;;;;5014827;28;20552;-75
2022/03/26 09:35:55;;;;;;;12.60;9.57;;;;;;;;;;5006883;28;20204;-74
2022/03/26 09:38:22;;;;;;;14.63;10.88;;;;;;;;;;5000357;28;20199;-77
2022/03/26 09:40:49;;;;;;;17.90;11.07;;;;;;;;;;5001133;28;20655;-75
2022/03/26 09:43:16;;;;;;;11.45;9.60;;;;;;;;;;5004333;28;20204;-75
2022/03/26 09:45:44;;;;;;;13.27;9.10;;;;;;;;;;4998274;28;20204;-74
2022/03/26 09:48:12;;;;;;;14.95;10.52;;;;;;;;;;5008193;28;20211;-74
2022/03/26 09:50:42;;;;;;;13.55;9.65;;;;;;;;;;4996649;28;20603;-75
2022/03/26 09:53:11;;;;;;;17.35;10.20;;;;;;;;;;5007032;28;20242;-75
2022/03/26 09:55:38;;;;;;;11.15;9.68;;;;;;;;;;5005721;28;20216;-77
2022/03/26 09:58:05;;;;;;;14.98;10.95;;;;;;;;;;5006687;28;20235;-75
2022/03/26 10:00:32;;;;;;;13.43;9.63;;;;;;;;;;4997269;28;20200;-76
2022/03/26 10:02:59;;;;;;;12.40;9.52;;;;;;;;;;5006721;28;20220;-75
2022/03/26 10:05:34;;;;;;;17.35;9.52;;;;;;;;;;5011019;28;20659;-76
2022/03/26 10:08:15;;;;;;;13.70;8.85;;;;;;;;;;5003176;28;20678;-75
2022/03/26 10:10:44;;;;;;;17.20;9.40;;;;;;;;;;5001904;28;20946;-75
2022/03/26 10:13:11;;;;;;;15.80;8.85;;;;;;;;;;5001608;28;20226;-76
2022/03/26 10:15:38;;;;;;;14.90;8.85;;;;;;;;;;5002676;28;20204;-75
2022/03/26 10:18:12;;;;;;;15.45;10.23;;;;;;;;;;4998773;28;20196;-76
2022/03/26 10:20:41;;;;;;;14.48;10.48;;;;;;;;;;5006944;28;20729;-75
2022/03/26 10:23:08;;;;;;;14.05;9.57;;;;;;;;;;4999960;28;20211;-76
2022/03/26 10:25:35;;;;;;;22.45;10.82;;;;;;;;;;4999929;28;20204;-76
2022/03/26 10:28:02;;;;;;;15.82;11.13;;;;;;;;;;4999297;28;20653;-75
2022/03/26 10:33:23;;;;;;;11.68;9.13;;;;;;;;;;4958879;28;20693;-75
2022/03/26 10:35:55;;;;;;;13.05;10.27;;;;;;;;;;4998988;28;20668;-76
2022/03/26 10:38:28;;;;;;;12.90;8.80;;;;;;;;;;5009702;28;20203;-75
2022/03/26 10:40:59;;;;;;;14.63;9.70;;;;;;;;;;5000150;28;20830;-75
2022/03/26 10:43:26;;;;;;;15.43;8.75;;;;;;;;;;5009389;28;20200;-78
2022/03/26 10:45:55;;;;;;;13.38;8.60;;;;;;;;;;4999062;28;20200;-76
2022/03/26 10:48:24;;;;;;;14.65;8.70;;;;;;;;;;4991199;28;20231;-76
2022/03/26 10:50:57;;;;;;;11.88;8.68;;;;;;;;;;4996413;28;20221;-75
2022/03/26 10:53:33;;;;;;;12.15;8.43;;;;;;;;;;4995999;28;20200;-74
2022/03/26 10:56:01;;;;;;;12.95;9.00;;;;;;;;;;5001488;28;20218;-75
2022/03/26 10:58:28;;;;;;;11.95;9.32;;;;;;;;;;4998515;28;20204;-75
2022/03/26 11:00:55;;;;;;;15.05;9.25;;;;;;;;;;4996021;28;20683;-75
2022/03/26 11:03:22;;;;;;;10.70;8.45;;;;;;;;;;5006230;28;20196;-75
2022/03/26 11:05:50;;;;;;;19.52;8.32;;;;;;;;;;5009448;28;20211;-76
2022/03/26 11:08:18;;;;;;;10.82;8.80;;;;;;;;;;4998794;28;20240;-76
2022/03/26 11:10:46;;;;;;;9.13;7.93;;;;;;;;;;5010266;28;20718;-75
2022/03/26 11:13:13;;;;;;;13.40;8.25;;;;;;;;;;5000020;28;20204;-78
2022/03/26 11:15:43;;;;;;;17.27;8.93;;;;;;;;;;4998590;28;20215;-74
2022/03/26 11:18:31;;;;;;;8.85;7.50;;;;;;;;;;5003210;28;20699;-76
2022/03/26 11:21:11;;;;;;;11.85;7.78;;;;;;;;;;5003877;28;20568;-75
2022/03/26 11:23:46;;;;;;;11.13;7.75;;;;;;;;;;5002574;28;20549;-75
2022/03/26 11:26:23;;;;;;;8.40;6.40;;;;;;;;;;5000898;28;20245;-75
2022/03/26 11:29:00;;;;;;;12.63;7.65;;;;;;;;;;5000370;28;20227;-75
2022/03/26 11:31:30;;;;;;;18.02;8.90;;;;;;;;;;4993076;28;20276;-75
2022/03/26 11:34:03;;;;;;;8.55;7.10;;;;;;;;;;4994674;28;20209;-76
2022/03/26 11:36:30;;;;;;;8.85;6.88;;;;;;;;;;4997770;28;20359;-77
2022/03/26 11:39:13;;;;;;;10.25;6.20;;;;;;;;;;4993441;28;20205;-76
2022/03/26 11:41:41;;;;;;;11.43;8.43;;;;;;;;;;4994344;28;20188;-77
2022/03/26 11:44:08;;;;;;;12.57;7.80;;;;;;;;;;4997917;28;20204;-76
2022/03/26 11:52:14;;;;;;;14.20;8.27;;;;;;;;;;5003655;28;20231;-75
2022/03/26 11:54:43;;;;;;;12.43;8.98;;;;;;;;;;5001125;28;20231;-74
2022/03/26 11:57:12;;;;;;;10.15;7.82;;;;;;;;;;5004257;28;20215;-77
2022/03/26 11:59:39;;;;;;;9.80;7.85;;;;;;;;;;5003530;28;20287;-76
2022/03/26 12:02:19;;;;;;;13.82;8.57;;;;;;;;;;5005060;28;20431;-76
2022/03/26 12:04:50;;;;;;;8.27;6.93;;;;;;;;;;5006615;28;20745;-76
2022/03/26 12:07:18;;;;;;;9.85;8.05;;;;;;;;;;5002538;28;20545;-76
2022/03/26 12:09:48;;;;;;;12.80;8.55;;;;;;;;;;5005169;28;20691;-75
2022/03/26 12:12:17;;;;;;;11.85;9.23;;;;;;;;;;4988019;28;20227;-75
2022/03/26 12:15:02;;;;;;;10.90;8.45;;;;;;;;;;5003460;28;20580;-76
2022/03/26 12:17:42;;;;;;;12.55;9.93;;;;;;;;;;5006767;28;20270;-75
2022/03/26 12:20:19;;;;;;;10.90;8.20;;;;;;;;;;4993036;28;20652;-76
2022/03/26 12:22:49;;;;;;;13.02;8.98;;;;;;;;;;5005379;28;20208;-75
2022/03/26 12:25:18;;;;;;;10.40;8.90;;;;;;;;;;4992666;28;20216;-75
2022/03/26 12:27:45;;;;;;;14.73;9.70;;;;;;;;;;5009178;28;20229;-78
2022/03/26 12:30:14;;;;;;;11.90;10.32;;;;;;;;;;5002498;28;20723;-75
2022/03/26 12:32:43;;;;;;;12.60;9.70;;;;;;;;;;4996340;28;20223;-76
2022/03/26 12:35:10;;;;;;;9.93;8.60;;;;;;;;;;5011356;28;20227;-76
2022/03/26 12:37:38;;;;;;;10.35;8.90;;;;;;;;;;5005995;28;20215;-77
2022/03/26 12:40:07;;;;;;;13.45;9.90;;;;;;;;;;5009898;28;20297;-76
2022/03/26 12:42:36;;;;;;;13.00;8.38;;;;;;;;;;5008930;28;20207;-77
2022/03/26 12:45:13;;;;;;;12.85;9.52;;;;;;;;;;4998693;28;20250;-75
2022/03/26 12:47:44;;;;;;;8.90;6.53;;;;;;;;;;5010262;28;20208;-75
2022/03/26 12:50:11;;;;;;;8.40;7.28;;;;;;;;;;5008858;28;20223;-76
2022/03/26 12:52:38;;;;;;;8.00;6.68;;;;;;;;;;5013874;28;20224;-76
2022/03/26 12:55:05;;;;;;;8.93;6.75;;;;;;;;;;4999974;28;20221;-76
2022/03/26 13:00:22;;;;;;;11.43;7.32;;;;;;;;;;5008222;28;20207;-76
2022/03/26 13:03:00;;;;;;;8.88;7.65;;;;;;;;;;4995931;28;20702;-75
2022/03/26 13:05:29;;;;;;;8.57;6.55;;;;;;;;;;5000274;28;20211;-78
2022/03/26 13:07:56;;;;;;;10.02;7.43;;;;;;;;;;5009728;28;20208;-75
2022/03/26 13:10:29;;;;;;;8.43;6.93;;;;;;;;;;4998365;28;20236;-76
2022/03/26 13:12:56;;;;;;;7.85;6.50;;;;;;;;;;4991401;28;20233;-75
2022/03/26 13:15:25;;;;;;;8.93;8.00;;;;;;;;;;5000136;28;20199;-75
2022/03/26 13:17:52;;;;;;;13.18;9.40;;;;;;;;;;5002710;28;20204;-77
2022/03/26 13:20:26;;;;;;;12.55;7.68;;;;;;;;;;5005430;28;20604;-75
2022/03/26 13:22:54;;;;;;;8.25;7.22;;;;;;;;;;4994848;28;20229;-74
2022/03/26 13:25:21;;;;;;;13.02;7.70;;;;;;;;;;5014915;28;20290;-77
2022/03/26 13:27:48;;;;;;;9.02;7.68;;;;;;;;;;4998186;28;20212;-76
2022/03/26 13:30:16;;;;;;;12.23;7.20;;;;;;;;;;5004634;28;20199;-75
2022/03/26 13:32:44;;;;;;;10.57;8.23;;;;;;;;;;5014627;28;20574;-77
2022/03/26 13:35:14;;;;;;;11.43;8.30;;;;;;;;;;5018937;28;20227;-75
2022/03/26 13:37:46;;;;;;;8.25;7.35;;;;;;;;;;4998704;28;20204;-75
2022/03/26 13:40:15;;;;;;;12.63;8.30;;;;;;;;;;5003220;28;20227;-75
2022/03/26 13:42:44;;;;;;;9.43;7.65;;;;;;;;;;5010481;28;20200;-77
2022/03/26 13:45:11;;;;;;;9.27;7.45;;;;;;;;;;5004131;28;20668;-75
2022/03/26 13:47:39;;;;;;;7.95;6.60;;;;;;;;;;4998979;28;20308;-75
2022/03/26 13:50:09;;;;;;;9.15;7.72;;;;;;;;;;5004244;28;20200;-75
2022/03/26 13:52:37;;;;;;;9.35;7.68;;;;;;;;;;5004200;28;20231;-75
2022/03/26 13:55:19;;;;;;;14.55;7.63;;;;;;;;;;4999434;28;20227;-76
2022/03/26 13:57:49;;;;;;;10.82;8.80;;;;;;;;;;4998010;28;20695;-76
2022/03/26 14:00:16;;;;;;;15.95;10.38;;;;;;;;;;5003192;28;20204;-75
2022/03/26 14:02:44;;;;;;;7.75;6.95;;;;;;;;;;5012908;28;20675;-75
2022/03/26 14:05:19;;;;;;;8.38;7.47;;;;;;;;;;5011206;28;20208;-75
2022/03/26 14:07:47;;;;;;;11.18;7.35;;;;;;;;;;5007064;28;20196;-75
2022/03/26 14:10:14;;;;;;;12.23;10.25;;;;;;;;;;5002127;28;20721;-75
2022/03/26 14:12:41;;;;;;;11.25;7.72;;;;;;;;;;5001228;28;20655;-75
2022/03/26 14:15:08;;;;;;;9.68;7.95;;;;;;;;;;5006154;28;20204;-75
2022/03/26 14:17:35;;;;;;;12.13;9.05;;;;;;;;;;5010596;28;20199;-75
2022/03/26 14:20:03;;;;;;;8.10;7.18;;;;;;;;;;5007280;28;20267;-77
2022/03/26 14:22:31;;;;;;;10.35;7.40;;;;;;;;;;5012769;28;20269;-75
2022/03/26 14:24:58;;;;;;;11.27;6.85;;;;;;;;;;5001260;28;20223;-74
2022/03/26 14:27:25;;;;;;;8.57;7.15;;;;;;;;;;5041477;23;20712;-76
2022/03/26 14:29:52;;;;;;;8.82;7.15;;;;;;;;;;5022307;28;20199;-76
2022/03/26 14:32:19;;;;;;;8.55;6.80;;;;;;;;;;5028160;28;20224;-76
2022/03/26 14:34:46;;;;;;;7.32;6.07;;;;;;;;;;5027112;28;20249;-76
2022/03/26 14:37:13;;;;;;;12.48;7.22;;;;;;;;;;5022569;28;20559;-75